ADDS METAR Data INFO
IDs: Format: Raw Decoded Include TAF

Data at: 1150 UTC 21 Jun 2018

KPMP 211053Z 22005KT 9SM CLR 27/24 A2995 RMK AO2 SLP142 T02670239
KPMP 210953Z AUTO 00000KT 10SM CLR 27/23 A2993 RMK AO2 SLP137 T02670228
KPMP 210853Z AUTO 23003KT 10SM CLR 27/23 A2993 RMK AO2 SLP134 T02670228 56004
KPMP 210753Z AUTO 00000KT 10SM CLR 27/23 A2993 RMK AO2 SLP135 T02720233
KPMP 210653Z AUTO 00000KT 10SM CLR 28/23 A2993 RMK AO2 SLP136 T02780233
KPMP 210553Z AUTO 17004KT 10SM CLR 28/23 A2994 RMK AO2 SLP138 T02780233 10289 20278 58008
KPMP 210453Z AUTO 18003KT 10SM CLR 28/23 A2996 RMK AO2 SLP147 T02830233 403170244
KPMP 210353Z AUTO 19005KT 10SM CLR 28/24 A2997 RMK AO2 SLP150 T02830239
KPMP 210253Z AUTO 17008KT 10SM FEW017 28/24 A2996 RMK AO2 SLP147 T02830244 53008
KPMP 210153Z AUTO 13010KT 10SM FEW017 28/24 A2996 RMK AO2 SLP145 T02830244
KPMP 210053Z 13011KT 10SM CLR 28/24 A2994 RMK AO2 SLP139 T02830239
KPMP 202353Z 12007KT 10SM FEW019 29/24 A2994 RMK AO2 SLP139 T02890239 10317 20289 53007
KPMP 202253Z 11009KT 10SM CLR 29/24 A2992 RMK AO2 SLP133 T02940239
KPMP 202153Z 09012KT 10SM CLR 31/23 A2991 RMK AO2 SLP129 T03060233
KPMP 202053Z 11009KT 10SM CLR 31/23 A2992 RMK AO2 SLP132 T03110228 58014
KPMP 201953Z 11012KT 10SM FEW040 31/23 A2993 RMK AO2 SLP136 T03110228
KPMP 201853Z 12011KT 10SM CLR 31/23 A2995 RMK AO2 SLP142 T03110228
KPMP 201753Z 10012KT 10SM CLR 31/23 A2996 RMK AO2 SLP145 T03110228 10317 20283 58010
KPMP 201653Z 08011KT 10SM FEW028 31/23 A2997 RMK AO2 SLP149 T03110233
KPMP 201553Z 08008KT 10SM SCT028 31/21 A2998 RMK AO2 SLP153 T03110206
KPMP 201453Z 09006KT 10SM SCT028 31/20 A2999 RMK AO2 SLP155 T03060200 51002
KPMP 201353Z 08005KT 10SM FEW028 29/21 A2999 RMK AO2 SLP155 T02940211
KPMP 201253Z 13005KT 10SM FEW028 29/22 A2999 RMK AO2 SLP155 T02890222
KPMP 201153Z 00000KT 10SM CLR 28/22 A2998 RMK AO2 SLP153 T02830222 10283 20244 53010
KPMP 201053Z 00000KT 10SM CLR 24/22 A2996 RMK AO2 SLP146 T02440217
KPMP 200953Z AUTO 00000KT 10SM CLR 25/21 A2995 RMK AO2 SLP144 T02500211
KPMP 200853Z AUTO 00000KT 10SM CLR 26/22 A2995 RMK AO2 SLP144 T02560217 55004
KPMP 200753Z AUTO 00000KT 10SM CLR 26/22 A2994 RMK AO2 SLP141 T02610217
KPMP 200653Z AUTO 00000KT 10SM CLR 27/22 A2996 RMK AO2 SLP146 T02720217
KPMP 200553Z AUTO 08003KT 10SM CLR 27/22 A2997 RMK AO2 SLP148 T02720217 10289 20272 58010
KPMP 200453Z AUTO 10003KT 10SM CLR 28/21 A2998 RMK AO2 SLP153 T02780211 403170256
KPMP 200353Z AUTO 12004KT 10SM CLR 28/21 A2999 RMK AO2 SLP154 T02780206
KPMP 200253Z AUTO 14006KT 10SM FEW031 28/21 A2999 RMK AO2 SLP158 T02780211 52008
KPMP 200207Z AUTO 14005KT 10SM SCT029 28/22 A2999 RMK AO2 T02780217
KPMP 200153Z AUTO 13006KT 10SM BKN029 BKN034 28/22 A2999 RMK AO2 SLP156 T02830217
KPMP 200141Z AUTO 13005KT 10SM BKN029 BKN034 28/22 A2999 RMK AO2 T02830217
KPMP 200053Z AUTO 12005KT 10SM FEW027 28/22 A2998 RMK AO2 SLP151 T02830217
KPMP 192353Z 10007KT 10SM FEW028 29/21 A2997 RMK AO2 SLP150 T02890211 10317 20283 55001